sensor_id;sensor_type;location;lat;lon;timestamp;P1;durP1;ratioP1;P2;durP2;ratioP2
43509;SDS011;29105;57.764;40.952;2023-04-03T00:02:16;8.57;;;5.22;;
43509;SDS011;29105;57.764;40.952;2023-04-03T00:04:42;9.20;;;5.07;;
43509;SDS011;29105;57.764;40.952;2023-04-03T00:07:08;8.50;;;5.32;;
43509;SDS011;29105;57.764;40.952;2023-04-03T00:09:33;9.80;;;4.85;;
43509;SDS011;29105;57.764;40.952;2023-04-03T00:11:59;7.47;;;5.05;;
43509;SDS011;29105;57.764;40.952;2023-04-03T00:14:25;6.63;;;3.83;;
43509;SDS011;29105;57.764;40.952;2023-04-03T00:16:52;6.25;;;2.53;;
43509;SDS011;29105;57.764;40.952;2023-04-03T00:19:18;5.53;;;3.15;;
43509;SDS011;29105;57.764;40.952;2023-04-03T00:21:44;8.50;;;4.30;;
43509;SDS011;29105;57.764;40.952;2023-04-03T00:24:09;8.32;;;5.72;;
43509;SDS011;29105;57.764;40.952;2023-04-03T00:26:35;6.32;;;4.05;;
43509;SDS011;29105;57.764;40.952;2023-04-03T00:29:01;6.55;;;3.50;;
43509;SDS011;29105;57.764;40.952;2023-04-03T00:31:26;8.07;;;4.65;;
43509;SDS011;29105;57.764;40.952;2023-04-03T00:33:52;7.32;;;4.22;;
43509;SDS011;29105;57.764;40.952;2023-04-03T00:36:17;7.22;;;4.45;;
43509;SDS011;29105;57.764;40.952;2023-04-03T00:38:43;8.85;;;4.93;;
43509;SDS011;29105;57.764;40.952;2023-04-03T00:41:08;10.32;;;5.28;;
43509;SDS011;29105;57.764;40.952;2023-04-03T00:43:34;8.20;;;4.45;;
43509;SDS011;29105;57.764;40.952;2023-04-03T00:46:00;7.18;;;4.32;;
43509;SDS011;29105;57.764;40.952;2023-04-03T00:51:03;9.02;;;4.70;;
43509;SDS011;29105;57.764;40.952;2023-04-03T00:53:39;8.30;;;4.18;;
43509;SDS011;29105;57.764;40.952;2023-04-03T00:56:08;6.50;;;4.15;;
43509;SDS011;29105;57.764;40.952;2023-04-03T00:58:39;8.65;;;4.45;;
43509;SDS011;29105;57.764;40.952;2023-04-03T01:01:10;7.18;;;4.32;;
43509;SDS011;29105;57.764;40.952;2023-04-03T01:03:38;7.93;;;4.55;;
43509;SDS011;29105;57.764;40.952;2023-04-03T01:06:04;6.90;;;3.75;;
43509;SDS011;29105;57.764;40.952;2023-04-03T01:08:30;8.63;;;3.92;;
43509;SDS011;29105;57.764;40.952;2023-04-03T01:10:56;15.25;;;6.47;;
43509;SDS011;29105;57.764;40.952;2023-04-03T01:13:23;7.32;;;3.25;;
43509;SDS011;29105;57.764;40.952;2023-04-03T01:15:50;11.07;;;4.22;;
43509;SDS011;29105;57.764;40.952;2023-04-03T01:18:16;10.00;;;5.00;;
43509;SDS011;29105;57.764;40.952;2023-04-03T01:21:05;9.90;;;5.28;;
43509;SDS011;29105;57.764;40.952;2023-04-03T01:26:36;7.88;;;4.78;;
43509;SDS011;29105;57.764;40.952;2023-04-03T01:29:02;8.07;;;4.90;;
43509;SDS011;29105;57.764;40.952;2023-04-03T01:31:41;9.25;;;3.80;;
43509;SDS011;29105;57.764;40.952;2023-04-03T01:34:14;7.50;;;4.22;;
43509;SDS011;29105;57.764;40.952;2023-04-03T01:36:40;8.25;;;4.63;;
43509;SDS011;29105;57.764;40.952;2023-04-03T01:39:06;7.05;;;5.00;;
43509;SDS011;29105;57.764;40.952;2023-04-03T01:41:32;7.05;;;4.45;;
43509;SDS011;29105;57.764;40.952;2023-04-03T01:43:57;9.85;;;4.78;;
43509;SDS011;29105;57.764;40.952;2023-04-03T01:46:23;8.38;;;4.70;;
43509;SDS011;29105;57.764;40.952;2023-04-03T01:48:49;8.50;;;5.05;;
43509;SDS011;29105;57.764;40.952;2023-04-03T01:51:14;8.00;;;4.65;;
43509;SDS011;29105;57.764;40.952;2023-04-03T01:53:40;6.55;;;4.57;;
43509;SDS011;29105;57.764;40.952;2023-04-03T01:56:06;8.18;;;5.00;;
43509;SDS011;29105;57.764;40.952;2023-04-03T01:58:32;5.85;;;3.85;;
43509;SDS011;29105;57.764;40.952;2023-04-03T02:00:57;8.25;;;4.68;;
43509;SDS011;29105;57.764;40.952;2023-04-03T02:03:23;7.72;;;4.38;;
43509;SDS011;29105;57.764;40.952;2023-04-03T02:05:50;8.32;;;4.80;;
43509;SDS011;29105;57.764;40.952;2023-04-03T02:08:16;6.88;;;4.45;;
43509;SDS011;29105;57.764;40.952;2023-04-03T02:10:43;8.60;;;4.82;;
43509;SDS011;29105;57.764;40.952;2023-04-03T02:13:10;9.93;;;5.05;;
43509;SDS011;29105;57.764;40.952;2023-04-03T02:15:37;7.70;;;5.82;;
43509;SDS011;29105;57.764;40.952;2023-04-03T02:18:04;7.70;;;4.25;;
43509;SDS011;29105;57.764;40.952;2023-04-03T02:20:29;7.05;;;4.68;;
43509;SDS011;29105;57.764;40.952;2023-04-03T02:22:55;8.88;;;4.70;;
43509;SDS011;29105;57.764;40.952;2023-04-03T02:25:21;8.77;;;4.07;;
43509;SDS011;29105;57.764;40.952;2023-04-03T02:27:46;7.85;;;4.13;;
43509;SDS011;29105;57.764;40.952;2023-04-03T02:30:12;7.63;;;4.90;;
43509;SDS011;29105;57.764;40.952;2023-04-03T02:32:38;6.78;;;4.05;;
43509;SDS011;29105;57.764;40.952;2023-04-03T02:35:06;7.53;;;4.43;;
43509;SDS011;29105;57.764;40.952;2023-04-03T02:37:32;7.55;;;4.65;;
43509;SDS011;29105;57.764;40.952;2023-04-03T02:39:58;6.63;;;4.30;;
43509;SDS011;29105;57.764;40.952;2023-04-03T02:42:23;7.32;;;5.22;;
43509;SDS011;29105;57.764;40.952;2023-04-03T02:44:49;8.13;;;4.55;;
43509;SDS011;29105;57.764;40.952;2023-04-03T02:47:14;6.90;;;4.03;;
43509;SDS011;29105;57.764;40.952;2023-04-03T02:49:41;8.82;;;4.22;;
43509;SDS011;29105;57.764;40.952;2023-04-03T02:52:08;8.15;;;4.93;;
43509;SDS011;29105;57.764;40.952;2023-04-03T02:54:34;8.18;;;5.30;;
43509;SDS011;29105;57.764;40.952;2023-04-03T02:57:00;9.18;;;5.10;;
43509;SDS011;29105;57.764;40.952;2023-04-03T02:59:26;6.60;;;4.25;;
43509;SDS011;29105;57.764;40.952;2023-04-03T03:01:51;8.63;;;5.43;;
43509;SDS011;29105;57.764;40.952;2023-04-03T03:04:17;11.07;;;5.40;;
43509;SDS011;29105;57.764;40.952;2023-04-03T03:06:43;7.72;;;4.88;;
43509;SDS011;29105;57.764;40.952;2023-04-03T03:09:08;9.35;;;5.55;;
43509;SDS011;29105;57.764;40.952;2023-04-03T03:11:34;9.07;;;4.72;;
43509;SDS011;29105;57.764;40.952;2023-04-03T03:14:00;6.97;;;4.55;;
43509;SDS011;29105;57.764;40.952;2023-04-03T03:16:26;7.95;;;4.70;;
43509;SDS011;29105;57.764;40.952;2023-04-03T03:18:51;7.60;;;4.35;;
43509;SDS011;29105;57.764;40.952;2023-04-03T03:21:17;9.10;;;4.97;;
43509;SDS011;29105;57.764;40.952;2023-04-03T03:23:42;8.77;;;4.90;;
43509;SDS011;29105;57.764;40.952;2023-04-03T03:26:09;6.15;;;4.20;;
43509;SDS011;29105;57.764;40.952;2023-04-03T03:28:36;10.88;;;5.30;;
43509;SDS011;29105;57.764;40.952;2023-04-03T03:31:02;10.50;;;5.00;;
43509;SDS011;29105;57.764;40.952;2023-04-03T03:33:28;11.07;;;5.55;;
43509;SDS011;29105;57.764;40.952;2023-04-03T03:35:54;10.55;;;5.00;;
43509;SDS011;29105;57.764;40.952;2023-04-03T03:38:20;11.05;;;5.60;;
43509;SDS011;29105;57.764;40.952;2023-04-03T03:40:47;8.73;;;5.35;;
43509;SDS011;29105;57.764;40.952;2023-04-03T03:43:14;8.18;;;4.88;;
43509;SDS011;29105;57.764;40.952;2023-04-03T03:45:40;10.23;;;5.05;;
43509;SDS011;29105;57.764;40.952;2023-04-03T03:48:06;9.00;;;4.90;;
43509;SDS011;29105;57.764;40.952;2023-04-03T03:50:31;10.98;;;5.75;;
43509;SDS011;29105;57.764;40.952;2023-04-03T03:52:57;9.55;;;5.55;;
43509;SDS011;29105;57.764;40.952;2023-04-03T03:55:23;12.05;;;6.65;;
43509;SDS011;29105;57.764;40.952;2023-04-03T03:57:48;13.90;;;6.85;;
43509;SDS011;29105;57.764;40.952;2023-04-03T04:00:14;11.27;;;7.30;;
43509;SDS011;29105;57.764;40.952;2023-04-03T04:02:40;15.27;;;7.97;;
43509;SDS011;29105;57.764;40.952;2023-04-03T04:05:06;9.65;;;5.97;;
43509;SDS011;29105;57.764;40.952;2023-04-03T04:07:32;14.07;;;7.25;;
43509;SDS011;29105;57.764;40.952;2023-04-03T04:09:57;10.57;;;5.93;;
43509;SDS011;29105;57.764;40.952;2023-04-03T04:12:23;12.32;;;5.90;;
43509;SDS011;29105;57.764;40.952;2023-04-03T04:14:49;14.68;;;6.78;;
43509;SDS011;29105;57.764;40.952;2023-04-03T04:17:14;10.00;;;5.70;;
43509;SDS011;29105;57.764;40.952;2023-04-03T04:19:40;9.00;;;5.43;;
43509;SDS011;29105;57.764;40.952;2023-04-03T04:22:05;9.10;;;5.32;;
43509;SDS011;29105;57.764;40.952;2023-04-03T04:24:31;11.57;;;5.78;;
43509;SDS011;29105;57.764;40.952;2023-04-03T04:26:57;8.90;;;5.18;;
43509;SDS011;29105;57.764;40.952;2023-04-03T04:29:23;11.98;;;4.55;;
43509;SDS011;29105;57.764;40.952;2023-04-03T04:31:48;8.25;;;5.00;;
43509;SDS011;29105;57.764;40.952;2023-04-03T04:34:14;9.32;;;5.93;;
43509;SDS011;29105;57.764;40.952;2023-04-03T04:36:40;10.73;;;5.55;;
43509;SDS011;29105;57.764;40.952;2023-04-03T04:39:05;7.80;;;5.22;;
43509;SDS011;29105;57.764;40.952;2023-04-03T04:41:31;8.13;;;5.20;;
43509;SDS011;29105;57.764;40.952;2023-04-03T04:43:57;11.43;;;5.80;;
43509;SDS011;29105;57.764;40.952;2023-04-03T04:46:23;9.82;;;5.25;;
43509;SDS011;29105;57.764;40.952;2023-04-03T04:48:49;9.77;;;5.13;;
43509;SDS011;29105;57.764;40.952;2023-04-03T04:51:15;10.60;;;5.40;;
43509;SDS011;29105;57.764;40.952;2023-04-03T04:53:41;11.77;;;4.88;;
43509;SDS011;29105;57.764;40.952;2023-04-03T04:56:07;9.32;;;5.05;;
43509;SDS011;29105;57.764;40.952;2023-04-03T04:58:33;9.05;;;4.97;;
43509;SDS011;29105;57.764;40.952;2023-04-03T05:01:02;10.27;;;4.40;;
43509;SDS011;29105;57.764;40.952;2023-04-03T05:03:32;8.20;;;5.30;;
43509;SDS011;29105;57.764;40.952;2023-04-03T05:05:58;12.75;;;8.73;;
43509;SDS011;29105;57.764;40.952;2023-04-03T05:08:24;10.63;;;6.15;;
43509;SDS011;29105;57.764;40.952;2023-04-03T05:10:50;10.93;;;5.47;;
43509;SDS011;29105;57.764;40.952;2023-04-03T05:13:15;11.93;;;6.97;;
43509;SDS011;29105;57.764;40.952;2023-04-03T05:15:41;11.82;;;5.60;;
43509;SDS011;29105;57.764;40.952;2023-04-03T05:18:07;8.73;;;5.05;;
43509;SDS011;29105;57.764;40.952;2023-04-03T05:20:33;8.35;;;5.32;;
43509;SDS011;29105;57.764;40.952;2023-04-03T05:22:59;7.70;;;4.63;;
43509;SDS011;29105;57.764;40.952;2023-04-03T05:25:25;6.15;;;4.32;;
43509;SDS011;29105;57.764;40.952;2023-04-03T05:27:51;8.35;;;4.55;;
43509;SDS011;29105;57.764;40.952;2023-04-03T05:30:20;6.30;;;4.13;;
43509;SDS011;29105;57.764;40.952;2023-04-03T05:32:46;5.95;;;3.38;;
43509;SDS011;29105;57.764;40.952;2023-04-03T05:35:12;7.25;;;4.88;;
43509;SDS011;29105;57.764;40.952;2023-04-03T05:37:37;6.70;;;4.40;;
43509;SDS011;29105;57.764;40.952;2023-04-03T05:40:04;6.93;;;4.55;;
43509;SDS011;29105;57.764;40.952;2023-04-03T05:42:30;6.28;;;4.82;;
43509;SDS011;29105;57.764;40.952;2023-04-03T05:44:56;8.27;;;5.25;;
43509;SDS011;29105;57.764;40.952;2023-04-03T05:47:21;7.53;;;4.60;;
43509;SDS011;29105;57.764;40.952;2023-04-03T05:49:47;9.07;;;5.25;;
43509;SDS011;29105;57.764;40.952;2023-04-03T05:54:54;6.15;;;4.30;;
43509;SDS011;29105;57.764;40.952;2023-04-03T05:57:20;10.25;;;4.07;;
43509;SDS011;29105;57.764;40.952;2023-04-03T05:59:46;5.90;;;4.07;;
43509;SDS011;29105;57.764;40.952;2023-04-03T06:02:13;7.32;;;4.18;;
43509;SDS011;29105;57.764;40.952;2023-04-03T06:04:43;7.22;;;3.47;;
43509;SDS011;29105;57.764;40.952;2023-04-03T06:07:12;5.90;;;3.45;;
43509;SDS011;29105;57.764;40.952;2023-04-03T06:09:41;6.18;;;3.78;;
43509;SDS011;29105;57.764;40.952;2023-04-03T06:12:06;8.10;;;4.00;;
43509;SDS011;29105;57.764;40.952;2023-04-03T06:14:32;9.40;;;3.25;;
43509;SDS011;29105;57.764;40.952;2023-04-03T06:16:58;7.65;;;4.32;;
43509;SDS011;29105;57.764;40.952;2023-04-03T06:19:24;8.23;;;4.70;;
43509;SDS011;29105;57.764;40.952;2023-04-03T06:21:51;7.82;;;4.95;;
43509;SDS011;29105;57.764;40.952;2023-04-03T06:24:17;6.78;;;4.47;;
43509;SDS011;29105;57.764;40.952;2023-04-03T06:26:43;8.90;;;4.40;;
43509;SDS011;29105;57.764;40.952;2023-04-03T06:29:09;5.60;;;3.92;;
43509;SDS011;29105;57.764;40.952;2023-04-03T06:31:35;8.30;;;3.50;;
43509;SDS011;29105;57.764;40.952;2023-04-03T06:34:04;6.60;;;4.80;;
43509;SDS011;29105;57.764;40.952;2023-04-03T06:36:30;6.78;;;3.80;;
43509;SDS011;29105;57.764;40.952;2023-04-03T06:38:56;6.53;;;4.60;;
43509;SDS011;29105;57.764;40.952;2023-04-03T06:41:22;6.20;;;3.88;;
43509;SDS011;29105;57.764;40.952;2023-04-03T06:43:48;6.30;;;3.92;;
43509;SDS011;29105;57.764;40.952;2023-04-03T06:46:14;6.25;;;3.88;;
43509;SDS011;29105;57.764;40.952;2023-04-03T06:48:41;6.70;;;4.20;;
43509;SDS011;29105;57.764;40.952;2023-04-03T06:51:11;6.00;;;3.60;;
43509;SDS011;29105;57.764;40.952;2023-04-03T06:53:49;6.68;;;4.28;;
43509;SDS011;29105;57.764;40.952;2023-04-03T06:56:16;7.82;;;5.15;;
43509;SDS011;29105;57.764;40.952;2023-04-03T06:58:42;7.63;;;4.60;;
43509;SDS011;29105;57.764;40.952;2023-04-03T07:01:09;7.65;;;4.70;;
43509;SDS011;29105;57.764;40.952;2023-04-03T07:03:36;8.90;;;4.65;;
43509;SDS011;29105;57.764;40.952;2023-04-03T07:06:03;6.75;;;4.47;;
43509;SDS011;29105;57.764;40.952;2023-04-03T07:08:29;7.47;;;4.50;;
43509;SDS011;29105;57.764;40.952;2023-04-03T07:10:55;7.78;;;4.55;;
43509;SDS011;29105;57.764;40.952;2023-04-03T07:13:21;6.47;;;3.95;;
43509;SDS011;29105;57.764;40.952;2023-04-03T07:15:47;9.63;;;5.60;;
43509;SDS011;29105;57.764;40.952;2023-04-03T07:18:13;6.43;;;4.57;;
43509;SDS011;29105;57.764;40.952;2023-04-03T07:20:39;8.75;;;5.03;;
43509;SDS011;29105;57.764;40.952;2023-04-03T07:23:05;7.45;;;4.00;;
43509;SDS011;29105;57.764;40.952;2023-04-03T07:25:31;9.57;;;4.95;;
43509;SDS011;29105;57.764;40.952;2023-04-03T07:27:57;6.20;;;3.72;;
43509;SDS011;29105;57.764;40.952;2023-04-03T07:30:23;7.70;;;4.50;;
43509;SDS011;29105;57.764;40.952;2023-04-03T07:32:48;9.30;;;4.95;;
43509;SDS011;29105;57.764;40.952;2023-04-03T07:35:15;6.20;;;3.95;;
43509;SDS011;29105;57.764;40.952;2023-04-03T07:37:41;6.22;;;4.20;;
43509;SDS011;29105;57.764;40.952;2023-04-03T07:40:07;7.43;;;4.97;;
43509;SDS011;29105;57.764;40.952;2023-04-03T07:42:33;8.30;;;4.97;;
43509;SDS011;29105;57.764;40.952;2023-04-03T07:45:00;9.07;;;5.10;;
43509;SDS011;29105;57.764;40.952;2023-04-03T07:47:30;10.43;;;4.65;;
43509;SDS011;29105;57.764;40.952;2023-04-03T07:49:56;10.18;;;4.70;;
43509;SDS011;29105;57.764;40.952;2023-04-03T07:52:23;8.60;;;5.28;;
43509;SDS011;29105;57.764;40.952;2023-04-03T07:54:50;11.57;;;5.45;;
43509;SDS011;29105;57.764;40.952;2023-04-03T07:57:15;9.52;;;5.18;;
43509;SDS011;29105;57.764;40.952;2023-04-03T07:59:41;12.32;;;5.53;;
43509;SDS011;29105;57.764;40.952;2023-04-03T08:02:10;9.02;;;5.07;;
43509;SDS011;29105;57.764;40.952;2023-04-03T08:04:37;14.52;;;5.65;;
43509;SDS011;29105;57.764;40.952;2023-04-03T08:07:02;8.30;;;5.10;;
43509;SDS011;29105;57.764;40.952;2023-04-03T08:09:30;9.98;;;4.38;;
43509;SDS011;29105;57.764;40.952;2023-04-03T08:11:56;7.40;;;5.00;;
43509;SDS011;29105;57.764;40.952;2023-04-03T08:14:23;8.23;;;4.55;;
43509;SDS011;29105;57.764;40.952;2023-04-03T08:16:48;8.55;;;4.88;;
43509;SDS011;29105;57.764;40.952;2023-04-03T08:19:16;9.65;;;5.60;;
43509;SDS011;29105;57.764;40.952;2023-04-03T08:21:43;7.18;;;4.15;;
43509;SDS011;29105;57.764;40.952;2023-04-03T08:24:10;17.00;;;4.90;;
43509;SDS011;29105;57.764;40.952;2023-04-03T08:26:36;7.85;;;4.38;;
43509;SDS011;29105;57.764;40.952;2023-04-03T08:29:02;10.27;;;3.67;;
43509;SDS011;29105;57.764;40.952;2023-04-03T08:31:28;10.32;;;4.57;;
43509;SDS011;29105;57.764;40.952;2023-04-03T08:33:53;10.50;;;5.15;;
43509;SDS011;29105;57.764;40.952;2023-04-03T08:36:20;7.30;;;4.65;;
43509;SDS011;29105;57.764;40.952;2023-04-03T08:38:48;8.57;;;3.35;;
43509;SDS011;29105;57.764;40.952;2023-04-03T08:41:16;6.25;;;4.03;;
43509;SDS011;29105;57.764;40.952;2023-04-03T08:43:56;9.70;;;4.38;;
43509;SDS011;29105;57.764;40.952;2023-04-03T08:46:25;7.32;;;4.32;;
43509;SDS011;29105;57.764;40.952;2023-04-03T08:49:04;7.55;;;3.53;;
43509;SDS011;29105;57.764;40.952;2023-04-03T08:51:30;11.05;;;3.97;;
43509;SDS011;29105;57.764;40.952;2023-04-03T08:53:58;8.85;;;4.07;;
43509;SDS011;29105;57.764;40.952;2023-04-03T08:56:28;10.17;;;3.90;;
43509;SDS011;29105;57.764;40.952;2023-04-03T08:58:56;9.27;;;4.85;;
43509;SDS011;29105;57.764;40.952;2023-04-03T09:01:34;7.70;;;4.30;;
43509;SDS011;29105;57.764;40.952;2023-04-03T09:04:11;11.88;;;5.07;;
43509;SDS011;29105;57.764;40.952;2023-04-03T09:06:39;7.03;;;3.80;;
43509;SDS011;29105;57.764;40.952;2023-04-03T09:14:29;7.07;;;3.88;;
43509;SDS011;29105;57.764;40.952;2023-04-03T09:17:14;10.95;;;3.72;;
43509;SDS011;29105;57.764;40.952;2023-04-03T09:19:51;9.55;;;3.25;;
43509;SDS011;29105;57.764;40.952;2023-04-03T09:22:26;6.72;;;2.90;;
43509;SDS011;29105;57.764;40.952;2023-04-03T09:25:11;14.88;;;3.80;;
43509;SDS011;29105;57.764;40.952;2023-04-03T09:27:40;7.90;;;3.45;;
43509;SDS011;29105;57.764;40.952;2023-04-03T09:30:06;6.10;;;3.55;;
43509;SDS011;29105;57.764;40.952;2023-04-03T09:32:38;8.98;;;4.22;;
43509;SDS011;29105;57.764;40.952;2023-04-03T09:35:06;6.03;;;3.50;;
43509;SDS011;29105;57.764;40.952;2023-04-03T09:37:44;9.68;;;3.63;;
43509;SDS011;29105;57.764;40.952;2023-04-03T09:40:31;4.38;;;2.90;;
43509;SDS011;29105;57.764;40.952;2023-04-03T09:45:46;14.57;;;4.57;;
43509;SDS011;29105;57.764;40.952;2023-04-03T09:51:00;12.13;;;4.22;;
43509;SDS011;29105;57.764;40.952;2023-04-03T09:56:02;18.50;;;4.85;;
43509;SDS011;29105;57.764;40.952;2023-04-03T09:58:39;11.50;;;3.83;;
43509;SDS011;29105;57.764;40.952;2023-04-03T10:01:34;6.05;;;3.13;;
43509;SDS011;29105;57.764;40.952;2023-04-03T10:06:39;8.27;;;3.38;;
43509;SDS011;29105;57.764;40.952;2023-04-03T10:09:17;9.82;;;3.78;;
43509;SDS011;29105;57.764;40.952;2023-04-03T10:14:32;10.27;;;4.00;;
43509;SDS011;29105;57.764;40.952;2023-04-03T10:17:02;12.45;;;4.45;;
43509;SDS011;29105;57.764;40.952;2023-04-03T10:19:48;13.65;;;3.83;;
43509;SDS011;29105;57.764;40.952;2023-04-03T10:22:43;6.65;;;3.90;;
43509;SDS011;29105;57.764;40.952;2023-04-03T10:28:10;7.70;;;3.88;;
43509;SDS011;29105;57.764;40.952;2023-04-03T10:33:18;8.88;;;4.65;;
43509;SDS011;29105;57.764;40.952;2023-04-03T10:36:14;13.27;;;3.92;;
43509;SDS011;29105;57.764;40.952;2023-04-03T10:47:11;7.95;;;3.78;;
43509;SDS011;29105;57.764;40.952;2023-04-03T10:49:56;8.57;;;2.63;;
43509;SDS011;29105;57.764;40.952;2023-04-03T10:57:57;12.40;;;3.70;;
43509;SDS011;29105;57.764;40.952;2023-04-03T11:00:39;4.45;;;3.10;;
43509;SDS011;29105;57.764;40.952;2023-04-03T11:03:11;9.02;;;3.10;;
43509;SDS011;29105;57.764;40.952;2023-04-03T11:05:42;12.70;;;3.83;;
43509;SDS011;29105;57.764;40.952;2023-04-03T11:08:13;5.57;;;2.33;;
43509;SDS011;29105;57.764;40.952;2023-04-03T11:10:56;5.38;;;2.17;;
43509;SDS011;29105;57.764;40.952;2023-04-03T11:13:33;3.45;;;2.30;;
43509;SDS011;29105;57.764;40.952;2023-04-03T11:16:02;3.05;;;2.33;;
43509;SDS011;29105;57.764;40.952;2023-04-03T11:18:35;5.80;;;3.03;;
43509;SDS011;29105;57.764;40.952;2023-04-03T11:21:12;11.15;;;2.70;;
43509;SDS011;29105;57.764;40.952;2023-04-03T11:23:44;10.80;;;4.32;;
43509;SDS011;29105;57.764;40.952;2023-04-03T11:26:11;8.90;;;4.50;;
43509;SDS011;29105;57.764;40.952;2023-04-03T11:28:40;11.73;;;6.05;;
43509;SDS011;29105;57.764;40.952;2023-04-03T11:31:15;13.57;;;5.25;;
43509;SDS011;29105;57.764;40.952;2023-04-03T11:39:47;9.57;;;5.38;;
43509;SDS011;29105;57.764;40.952;2023-04-03T11:42:13;12.85;;;4.35;;
43509;SDS011;29105;57.764;40.952;2023-04-03T11:44:46;13.52;;;4.35;;
43509;SDS011;29105;57.764;40.952;2023-04-03T11:47:12;10.15;;;4.88;;
43509;SDS011;29105;57.764;40.952;2023-04-03T11:52:58;11.67;;;5.07;;
43509;SDS011;29105;57.764;40.952;2023-04-03T12:21:14;6.53;;;3.88;;
43509;SDS011;29105;57.764;40.952;2023-04-03T12:26:47;4.25;;;2.60;;
43509;SDS011;29105;57.764;40.952;2023-04-03T12:45:25;11.77;;;5.43;;
43509;SDS011;29105;57.764;40.952;2023-04-03T12:47:55;18.55;;;4.47;;
43509;SDS011;29105;57.764;40.952;2023-04-03T12:50:25;11.93;;;3.83;;
43509;SDS011;29105;57.764;40.952;2023-04-03T12:53:02;11.27;;;3.80;;
43509;SDS011;29105;57.764;40.952;2023-04-03T12:55:30;7.78;;;3.72;;
43509;SDS011;29105;57.764;40.952;2023-04-03T12:57:56;11.02;;;3.40;;
43509;SDS011;29105;57.764;40.952;2023-04-03T13:00:25;5.50;;;2.58;;
43509;SDS011;29105;57.764;40.952;2023-04-03T13:02:55;4.70;;;3.10;;
43509;SDS011;29105;57.764;40.952;2023-04-03T13:05:21;9.35;;;3.72;;
43509;SDS011;29105;57.764;40.952;2023-04-03T13:13:29;7.13;;;4.47;;
43509;SDS011;29105;57.764;40.952;2023-04-03T13:15:55;16.67;;;4.65;;
43509;SDS011;29105;57.764;40.952;2023-04-03T13:18:31;19.00;;;5.22;;
43509;SDS011;29105;57.764;40.952;2023-04-03T13:21:05;12.02;;;5.50;;
43509;SDS011;29105;57.764;40.952;2023-04-03T13:23:40;12.10;;;5.03;;
43509;SDS011;29105;57.764;40.952;2023-04-03T13:26:08;11.00;;;3.83;;
43509;SDS011;29105;57.764;40.952;2023-04-03T13:28:34;8.23;;;3.00;;
43509;SDS011;29105;57.764;40.952;2023-04-03T13:33:30;6.95;;;2.78;;
43509;SDS011;29105;57.764;40.952;2023-04-03T13:36:08;11.00;;;4.32;;
43509;SDS011;29105;57.764;40.952;2023-04-03T13:38:42;7.68;;;4.10;;
43509;SDS011;29105;57.764;40.952;2023-04-03T13:41:42;8.13;;;3.30;;
43509;SDS011;29105;57.764;40.952;2023-04-03T13:46:52;9.95;;;4.22;;
43509;SDS011;29105;57.764;40.952;2023-04-03T13:49:30;12.00;;;5.65;;
43509;SDS011;29105;57.764;40.952;2023-04-03T13:51:58;23.55;;;6.13;;
43509;SDS011;29105;57.764;40.952;2023-04-03T13:54:28;8.27;;;4.22;;
43509;SDS011;29105;57.764;40.952;2023-04-03T13:56:55;8.57;;;4.38;;
43509;SDS011;29105;57.764;40.952;2023-04-03T13:59:23;10.20;;;4.88;;
43509;SDS011;29105;57.764;40.952;2023-04-03T14:02:17;12.48;;;5.70;;
43509;SDS011;29105;57.764;40.952;2023-04-03T14:04:55;8.43;;;4.65;;
43509;SDS011;29105;57.764;40.952;2023-04-03T14:07:25;12.90;;;5.97;;
43509;SDS011;29105;57.764;40.952;2023-04-03T14:09:51;16.02;;;9.32;;
43509;SDS011;29105;57.764;40.952;2023-04-03T14:12:21;19.23;;;8.57;;
43509;SDS011;29105;57.764;40.952;2023-04-03T14:14:52;15.93;;;8.07;;
43509;SDS011;29105;57.764;40.952;2023-04-03T14:17:22;18.58;;;8.95;;
43509;SDS011;29105;57.764;40.952;2023-04-03T14:19:49;23.77;;;8.95;;
43509;SDS011;29105;57.764;40.952;2023-04-03T14:22:26;15.70;;;9.65;;
43509;SDS011;29105;57.764;40.952;2023-04-03T14:24:54;26.85;;;13.20;;
43509;SDS011;29105;57.764;40.952;2023-04-03T14:29:54;25.02;;;12.27;;
43509;SDS011;29105;57.764;40.952;2023-04-03T14:32:22;21.70;;;10.25;;
43509;SDS011;29105;57.764;40.952;2023-04-03T14:34:48;18.98;;;8.38;;
43509;SDS011;29105;57.764;40.952;2023-04-03T14:37:16;17.58;;;7.85;;
43509;SDS011;29105;57.764;40.952;2023-04-03T14:39:47;13.57;;;7.35;;
43509;SDS011;29105;57.764;40.952;2023-04-03T14:42:15;13.00;;;7.40;;
43509;SDS011;29105;57.764;40.952;2023-04-03T14:44:43;17.42;;;8.25;;
43509;SDS011;29105;57.764;40.952;2023-04-03T14:47:10;18.20;;;8.80;;
43509;SDS011;29105;57.764;40.952;2023-04-03T14:49:37;14.27;;;8.23;;
43509;SDS011;29105;57.764;40.952;2023-04-03T14:52:02;20.80;;;11.82;;
43509;SDS011;29105;57.764;40.952;2023-04-03T14:54:28;18.73;;;10.35;;
43509;SDS011;29105;57.764;40.952;2023-04-03T14:56:54;15.82;;;8.40;;
43509;SDS011;29105;57.764;40.952;2023-04-03T14:59:21;12.27;;;6.88;;
43509;SDS011;29105;57.764;40.952;2023-04-03T15:01:47;13.93;;;6.30;;
43509;SDS011;29105;57.764;40.952;2023-04-03T15:04:17;17.38;;;6.85;;
43509;SDS011;29105;57.764;40.952;2023-04-03T15:06:44;11.60;;;5.97;;
43509;SDS011;29105;57.764;40.952;2023-04-03T15:09:21;10.73;;;5.32;;
43509;SDS011;29105;57.764;40.952;2023-04-03T15:11:49;11.27;;;6.85;;
43509;SDS011;29105;57.764;40.952;2023-04-03T15:14:15;9.80;;;5.63;;
43509;SDS011;29105;57.764;40.952;2023-04-03T15:16:41;11.88;;;5.93;;
43509;SDS011;29105;57.764;40.952;2023-04-03T15:19:06;8.60;;;4.60;;
43509;SDS011;29105;57.764;40.952;2023-04-03T15:21:32;11.10;;;7.13;;
43509;SDS011;29105;57.764;40.952;2023-04-03T15:23:58;15.18;;;6.75;;
43509;SDS011;29105;57.764;40.952;2023-04-03T15:26:24;21.15;;;8.60;;
43509;SDS011;29105;57.764;40.952;2023-04-03T15:28:50;18.20;;;8.45;;
43509;SDS011;29105;57.764;40.952;2023-04-03T15:31:15;13.88;;;7.38;;
43509;SDS011;29105;57.764;40.952;2023-04-03T15:33:41;14.25;;;6.18;;
43509;SDS011;29105;57.764;40.952;2023-04-03T15:36:07;18.58;;;6.22;;
43509;SDS011;29105;57.764;40.952;2023-04-03T15:38:33;16.27;;;6.80;;
43509;SDS011;29105;57.764;40.952;2023-04-03T15:40:59;17.98;;;5.60;;
43509;SDS011;29105;57.764;40.952;2023-04-03T15:43:25;17.27;;;6.30;;
43509;SDS011;29105;57.764;40.952;2023-04-03T15:45:51;12.75;;;6.68;;
43509;SDS011;29105;57.764;40.952;2023-04-03T15:48:17;20.67;;;7.40;;
43509;SDS011;29105;57.764;40.952;2023-04-03T15:50:43;13.35;;;7.07;;
43509;SDS011;29105;57.764;40.952;2023-04-03T15:53:09;16.30;;;7.45;;
43509;SDS011;29105;57.764;40.952;2023-04-03T15:55:36;15.88;;;8.02;;
43509;SDS011;29105;57.764;40.952;2023-04-03T15:58:02;13.90;;;7.47;;
43509;SDS011;29105;57.764;40.952;2023-04-03T16:00:29;21.52;;;8.55;;
43509;SDS011;29105;57.764;40.952;2023-04-03T16:02:57;21.73;;;7.40;;
43509;SDS011;29105;57.764;40.952;2023-04-03T16:05:26;20.40;;;6.70;;
43509;SDS011;29105;57.764;40.952;2023-04-03T16:07:52;14.50;;;5.68;;
43509;SDS011;29105;57.764;40.952;2023-04-03T16:10:19;15.63;;;5.78;;
43509;SDS011;29105;57.764;40.952;2023-04-03T16:12:45;30.10;;;8.65;;
43509;SDS011;29105;57.764;40.952;2023-04-03T16:15:11;50.97;;;12.02;;
43509;SDS011;29105;57.764;40.952;2023-04-03T16:17:37;82.60;;;15.10;;
43509;SDS011;29105;57.764;40.952;2023-04-03T16:20:04;68.75;;;15.85;;
43509;SDS011;29105;57.764;40.952;2023-04-03T16:22:31;64.65;;;13.55;;
43509;SDS011;29105;57.764;40.952;2023-04-03T16:24:57;50.00;;;11.48;;
43509;SDS011;29105;57.764;40.952;2023-04-03T16:27:22;41.92;;;7.82;;
43509;SDS011;29105;57.764;40.952;2023-04-03T16:29:53;26.27;;;6.25;;